createdAt,value
2023-01-09T04:01:55.549Z,97057.03
2023-01-09T04:05:06.246Z,97063.19
2023-01-09T04:08:16.813Z,97064.78
2023-01-09T04:11:26.887Z,97074.09
2023-01-09T04:14:36.900Z,97079.53
2023-01-09T04:17:48.164Z,97092.72
2023-01-09T04:20:58.236Z,97094.09
2023-01-09T04:24:08.823Z,97092.16
2023-01-09T04:27:18.939Z,97102.44
2023-01-09T04:30:28.880Z,97095.31
2023-01-09T04:33:40.506Z,97098.28
2023-01-09T04:36:50.464Z,97110.06
2023-01-09T04:40:00.488Z,97101.25
2023-01-09T04:43:10.421Z,97101.72
2023-01-09T04:46:20.421Z,97107.63
2023-01-09T04:49:31.934Z,97121.06
2023-01-09T04:52:42.053Z,97127.16
2023-01-09T04:55:51.984Z,97135.63
2023-01-09T04:59:01.999Z,97147.00
2023-01-09T05:02:12.288Z,97148.25
2023-01-09T05:05:23.995Z,97162.97
2023-01-09T05:08:33.975Z,97156.19
2023-01-09T05:11:43.952Z,97168.66
2023-01-09T05:14:54.003Z,97175.59
2023-01-09T05:18:04.160Z,97162.47
2023-01-09T05:21:15.913Z,97182.75
2023-01-09T05:24:25.891Z,97191.09
2023-01-09T05:27:35.979Z,97215.09
2023-01-09T05:30:48.270Z,97220.66
2023-01-09T05:33:59.334Z,97227.03
2023-01-09T05:37:10.754Z,97239.88
2023-01-09T05:40:23.040Z,97251.25
2023-01-09T05:43:33.258Z,97251.94
2023-01-09T05:46:43.200Z,97246.56
2023-01-09T05:49:53.346Z,97254.03
2023-01-09T05:53:04.721Z,97255.13
2023-01-09T05:56:14.985Z,97255.31
2023-01-09T05:59:25.121Z,97238.56
2023-01-09T06:02:35.457Z,97238.19
2023-01-09T06:05:45.742Z,97240.16
2023-01-09T06:08:57.049Z,97232.41
2023-01-09T06:12:07.457Z,97255.94
2023-01-09T06:15:17.612Z,97257.91
2023-01-09T06:18:27.727Z,97253.50
2023-01-09T06:21:37.845Z,97262.13
2023-01-09T06:24:49.299Z,97256.22
2023-01-09T06:27:59.273Z,97252.41
2023-01-09T06:31:09.410Z,97257.41
2023-01-09T06:34:19.523Z,97262.25
2023-01-09T06:37:29.678Z,97273.69
2023-01-09T06:40:41.030Z,97272.28
2023-01-09T06:43:51.010Z,97265.06
2023-01-09T06:47:01.067Z,97261.91
2023-01-09T06:50:11.931Z,97266.44
2023-01-09T06:53:22.174Z,97269.06
2023-01-09T06:56:33.674Z,97258.88
2023-01-09T06:59:43.719Z,97268.00
2023-01-09T07:02:53.818Z,97267.75
2023-01-09T07:06:06.719Z,97266.00
2023-01-09T07:09:16.843Z,97289.94
2023-01-09T07:12:28.252Z,97283.06
2023-01-09T07:15:38.493Z,97284.84
2023-01-09T07:18:48.800Z,97296.19
2023-01-09T07:21:58.744Z,97299.72
2023-01-09T07:25:09.264Z,97294.63
2023-01-09T07:28:20.670Z,97300.13
2023-01-09T07:31:30.677Z,97304.56
2023-01-09T07:34:40.798Z,97301.13
2023-01-09T07:37:50.928Z,97295.03
2023-01-09T07:41:01.003Z,97317.41
2023-01-09T07:44:12.836Z,97320.72
2023-01-09T11:34:05.653Z,97351.22
2023-01-09T11:37:27.766Z,97343.38
2023-01-09T11:40:46.972Z,97354.75
2023-01-09T11:44:02.566Z,97350.25
2023-01-09T11:47:27.657Z,97345.28
2023-01-09T11:50:39.338Z,97358.09
2023-01-09T11:54:01.917Z,97343.88
2023-01-09T11:57:13.644Z,97353.44
2023-01-09T12:00:27.445Z,97349.00
2023-01-09T12:03:53.410Z,97353.81
2023-01-09T12:07:22.214Z,97354.13
2023-01-09T12:10:49.077Z,97354.31
2023-01-09T12:14:19.219Z,97349.38
2023-01-09T12:17:47.610Z,97348.84
2023-01-09T12:21:12.798Z,97349.13
2023-01-09T12:24:41.573Z,97355.34
2023-01-09T12:28:12.145Z,97366.84
2023-01-09T12:31:36.679Z,97365.34
2023-01-09T12:34:56.208Z,97365.75
2023-01-09T12:38:22.159Z,97360.84
2023-01-09T12:41:49.454Z,97369.84
2023-01-09T12:45:05.087Z,97372.13
2023-01-09T12:48:28.516Z,97378.34
2023-01-09T12:51:43.234Z,97380.91
2023-01-09T12:54:58.144Z,97378.00
2023-01-09T12:58:17.432Z,97384.16
2023-01-09T13:01:33.387Z,97398.81
2023-01-09T13:04:50.379Z,97401.81
2023-01-09T13:08:04.446Z,97410.09
2023-01-09T13:11:21.003Z,97412.25
2023-01-09T13:14:45.676Z,97420.22
2023-01-09T13:18:01.349Z,97421.88
2023-01-09T13:21:13.860Z,97421.53
2023-01-09T13:24:30.803Z,97421.25
2023-01-09T13:27:42.506Z,97416.47
2023-01-09T13:31:10.308Z,97422.94
2023-01-09T13:34:23.016Z,97418.63
2023-01-09T13:37:35.539Z,97432.78
2023-01-09T13:40:45.610Z,97436.66
2023-01-09T13:43:58.131Z,97440.38
2023-01-09T13:47:17.655Z,97442.34
2023-01-09T13:50:28.792Z,97441.88
2023-01-09T13:53:48.431Z,97444.22
2023-01-09T13:57:25.240Z,97451.06
2023-01-09T14:00:50.147Z,97449.16
2023-01-09T14:04:37.382Z,97446.31
2023-01-09T14:07:49.605Z,97455.84
2023-01-09T14:11:02.080Z,97453.00
2023-01-09T14:14:26.760Z,97448.38
2023-01-09T14:17:38.786Z,97450.53
2023-01-09T14:20:59.038Z,97450.31
2023-01-09T14:24:13.278Z,97461.91
2023-01-09T14:27:47.207Z,97466.09
2023-01-09T14:31:06.582Z,97474.25
2023-01-09T14:34:32.514Z,97478.63
2023-01-09T14:37:47.109Z,97480.28
2023-01-09T14:41:01.908Z,97489.78
2023-01-09T14:44:26.835Z,97494.66
2023-01-09T14:47:42.894Z,97490.91
2023-01-09T14:50:55.857Z,97501.78
2023-01-09T14:54:29.077Z,97512.03
2023-01-09T14:57:39.298Z,97514.22
2023-01-09T15:00:53.874Z,97513.94
2023-01-09T15:04:07.752Z,97524.03
2023-01-09T15:07:23.575Z,97527.13
2023-01-09T15:10:38.246Z,97539.53
2023-01-09T15:13:51.349Z,97552.38
2023-01-09T15:17:02.274Z,97555.72
2023-01-09T15:20:19.593Z,97556.50
2023-01-09T15:23:31.236Z,97574.34
2023-01-09T15:26:42.622Z,97567.56
2023-01-09T15:29:53.717Z,97577.69
2023-01-09T15:33:08.646Z,97577.47
2023-01-09T15:36:25.837Z,97581.44
2023-01-09T15:39:39.807Z,97586.19
2023-01-09T15:42:57.539Z,97596.94
2023-01-09T15:46:08.242Z,97604.59
2023-01-09T15:49:19.476Z,97594.19
2023-01-09T15:52:30.119Z,97613.38
2023-01-09T15:55:40.456Z,97602.63
2023-01-09T15:58:52.864Z,97603.19
2023-01-09T16:02:17.466Z,97614.03
2023-01-09T16:05:28.188Z,97617.94
2023-01-09T16:08:40.872Z,97637.75
2023-01-09T16:11:53.832Z,97649.75
2023-01-09T16:15:05.611Z,97651.28
2023-01-09T16:18:23.040Z,97660.94
2023-01-09T16:21:36.224Z,97672.34
2023-01-09T16:24:48.550Z,97670.00
2023-01-09T16:31:32.618Z,97687.72
2023-01-09T16:34:44.286Z,97694.84
2023-01-09T16:37:54.329Z,97707.56
2023-01-09T16:41:17.070Z,97712.69
2023-01-09T16:44:27.990Z,97717.56
2023-01-09T16:47:39.372Z,97721.78
2023-01-09T16:50:49.513Z,97739.50
2023-01-09T16:53:59.665Z,97733.19
2023-01-09T16:57:12.659Z,97740.50
2023-01-09T17:00:22.950Z,97745.28
2023-01-09T17:03:37.237Z,97756.47
2023-01-09T17:06:48.871Z,97762.59
2023-01-09T17:09:58.911Z,97766.44
2023-01-09T17:13:08.860Z,97780.97
2023-01-09T17:16:19.593Z,97793.41
2023-01-09T17:19:30.856Z,97800.59
2023-01-09T17:22:40.826Z,97810.22
2023-01-09T17:26:05.754Z,97812.19
2023-01-09T17:29:15.881Z,97824.63
2023-01-09T17:32:25.978Z,97833.03
2023-01-09T17:35:37.207Z,97833.34
2023-01-09T17:38:47.380Z,97845.63
2023-01-09T17:41:59.121Z,97840.53
2023-01-09T17:45:09.630Z,97838.50
2023-01-09T17:48:21.591Z,97852.00
2023-01-09T17:51:33.229Z,97854.69
2023-01-09T17:54:43.309Z,97860.44
2023-01-09T17:57:53.428Z,97864.00
2023-01-09T18:01:03.406Z,97872.66
2023-01-09T18:04:13.453Z,97881.75
2023-01-09T18:07:24.847Z,97880.16
2023-01-09T18:10:34.959Z,97877.69
2023-01-09T18:13:45.220Z,97884.41
2023-01-09T18:16:55.363Z,97892.06
2023-01-09T18:20:06.140Z,97900.25
2023-01-09T18:23:18.463Z,97904.34
2023-01-09T18:26:28.737Z,97913.78
2023-01-09T18:29:38.825Z,97918.41
2023-01-09T18:32:48.940Z,97927.88
2023-01-09T18:36:07.489Z,97927.88
2023-01-09T18:39:18.854Z,97935.00
2023-01-09T18:42:28.830Z,97931.91
2023-01-09T18:45:39.756Z,97931.66
2023-01-09T18:48:52.579Z,97943.00
2023-01-09T18:52:02.813Z,97945.19
2023-01-09T18:55:14.339Z,97948.88
2023-01-09T18:58:24.448Z,97950.56
2023-01-09T19:01:34.718Z,97966.06
2023-01-09T19:04:44.776Z,97973.97
2023-01-09T19:07:55.085Z,97986.44
2023-01-09T19:11:06.835Z,97988.09
2023-01-09T19:14:16.973Z,97990.38
2023-01-09T19:17:27.162Z,97996.34
2023-01-09T19:20:39.270Z,97994.81
2023-01-09T19:23:50.601Z,97991.03
2023-01-09T19:27:01.856Z,97999.81
2023-01-09T19:30:13.360Z,98003.00
2023-01-09T19:33:24.600Z,98007.06
2023-01-09T19:36:34.984Z,98008.34
2023-01-09T19:39:46.670Z,98022.38
2023-01-09T19:42:59.234Z,98023.38
2023-01-09T19:46:10.811Z,98032.91
2023-01-09T19:49:20.832Z,98043.75
2023-01-09T19:52:31.074Z,98044.38
2023-01-09T19:55:41.399Z,98041.44
2023-01-09T19:58:54.894Z,98048.16
2023-01-09T20:02:05.250Z,98053.66
2023-01-09T20:05:15.320Z,98064.84
2023-01-09T20:08:25.515Z,98063.84
2023-01-09T20:11:35.683Z,98073.63
2023-01-09T20:14:47.088Z,98079.25
2023-01-09T20:17:57.048Z,98083.44
2023-01-09T20:21:07.164Z,98082.16
2023-01-09T20:24:17.779Z,98088.81
2023-01-09T20:27:27.774Z,98099.22
2023-01-09T20:30:42.805Z,98100.66
2023-01-09T20:33:55.089Z,98099.50
2023-01-09T20:37:05.223Z,98108.78
2023-01-09T20:40:15.391Z,98112.34
2023-01-09T20:43:26.517Z,98109.84
2023-01-09T20:46:40.111Z,98115.56
2023-01-09T20:49:50.132Z,98117.31
2023-01-09T20:53:00.084Z,98128.91
2023-01-09T20:56:10.743Z,98127.00
2023-01-09T20:59:22.377Z,98130.44
2023-01-09T21:02:34.073Z,98132.72
2023-01-09T21:05:44.461Z,98137.19
2023-01-09T21:08:54.556Z,98142.06
2023-01-09T21:12:24.623Z,98149.19
